createdAt,value
2023-11-30T00:00:20.546Z,33.81
2023-11-30T00:00:50.588Z,33.79
2023-11-30T00:01:20.671Z,33.85
2023-11-30T00:01:50.718Z,33.83
2023-11-30T00:02:20.774Z,33.83
2023-11-30T00:02:50.760Z,33.85
2023-11-30T00:03:51.030Z,33.85
2023-11-30T00:04:20.953Z,33.88
2023-11-30T00:04:50.982Z,33.79
2023-11-30T00:05:23.454Z,33.83
2023-11-30T00:05:51.122Z,33.88
2023-11-30T00:06:21.158Z,33.85
2023-11-30T00:06:51.143Z,33.83
2023-11-30T00:07:21.157Z,33.90
2023-11-30T00:07:51.150Z,33.93
2023-11-30T00:08:21.153Z,33.90
2023-11-30T00:08:51.222Z,33.89
2023-11-30T00:09:21.305Z,33.86
2023-11-30T00:09:51.326Z,33.83
2023-11-30T00:10:21.326Z,33.85
2023-11-30T00:10:51.332Z,33.86
2023-11-30T00:11:21.354Z,33.85
2023-11-30T00:11:51.396Z,33.82
2023-11-30T00:12:21.412Z,33.76
2023-11-30T00:12:51.419Z,33.71
2023-11-30T00:13:21.421Z,33.79
2023-11-30T00:13:51.443Z,33.73
2023-11-30T00:14:51.583Z,33.79
2023-11-30T00:15:21.712Z,33.80
2023-11-30T00:15:51.598Z,33.85
2023-11-30T00:16:21.645Z,33.83
2023-11-30T00:16:51.705Z,33.82
2023-11-30T00:17:21.660Z,33.89
2023-11-30T00:17:51.795Z,33.88
2023-11-30T00:18:21.855Z,33.92
2023-11-30T00:18:51.872Z,33.92
2023-11-30T00:19:21.888Z,33.84
2023-11-30T00:19:51.957Z,33.86
2023-11-30T00:20:22.076Z,33.86
2023-11-30T00:20:52.233Z,33.82
2023-11-30T00:21:22.357Z,33.85
2023-11-30T00:21:52.300Z,33.80
2023-11-30T00:22:22.389Z,33.88
2023-11-30T00:22:52.468Z,33.80
2023-11-30T00:23:22.551Z,33.77
2023-11-30T00:23:52.704Z,33.80
2023-11-30T00:24:22.753Z,33.65
2023-11-30T00:24:52.716Z,33.76
2023-11-30T00:25:22.797Z,33.71
2023-11-30T00:25:52.889Z,33.70
2023-11-30T00:26:22.897Z,33.73
2023-11-30T00:26:52.930Z,33.74
2023-11-30T00:27:23.008Z,33.74
2023-11-30T00:27:52.996Z,33.74
2023-11-30T00:28:23.058Z,33.74
2023-11-30T00:28:53.065Z,33.71
2023-11-30T00:29:23.061Z,33.76
2023-11-30T00:30:23.181Z,33.74
2023-11-30T00:30:53.210Z,33.72
2023-11-30T00:31:23.238Z,33.76
2023-11-30T00:31:53.260Z,33.77
2023-11-30T00:32:23.257Z,33.72
2023-11-30T00:32:53.331Z,33.70
2023-11-30T00:33:23.450Z,33.67
2023-11-30T00:33:53.373Z,33.79
2023-11-30T00:34:53.460Z,33.67
2023-11-30T00:35:23.454Z,33.66
2023-11-30T00:35:53.468Z,33.66
2023-11-30T00:36:23.491Z,33.68
2023-11-30T00:36:53.487Z,33.68
2023-11-30T00:37:23.484Z,33.70
2023-11-30T00:38:23.567Z,33.66
2023-11-30T00:38:53.609Z,33.58
2023-11-30T00:39:23.583Z,33.60
2023-11-30T00:39:53.659Z,33.54
2023-11-30T00:40:23.708Z,33.52
2023-11-30T00:40:53.704Z,33.54
2023-11-30T00:41:23.771Z,33.54
2023-11-30T00:41:53.808Z,33.55
2023-11-30T00:42:23.901Z,33.60
2023-11-30T00:42:53.993Z,33.51
2023-11-30T00:43:24.028Z,33.55
2023-11-30T00:43:54.030Z,33.47
2023-11-30T00:44:24.028Z,33.56
2023-11-30T00:45:24.210Z,33.51
2023-11-30T00:46:03.258Z,33.51
2023-11-30T00:46:24.232Z,33.55
2023-11-30T00:46:54.280Z,33.52
2023-11-30T00:47:24.291Z,33.53
2023-11-30T00:47:54.345Z,33.55
2023-11-30T00:48:24.452Z,33.45
2023-11-30T00:48:54.392Z,33.54
2023-11-30T00:49:24.375Z,33.49
2023-11-30T00:50:24.477Z,33.47
2023-11-30T00:50:54.600Z,33.47
2023-11-30T00:51:24.620Z,33.46
2023-11-30T00:51:54.652Z,33.46
2023-11-30T00:52:24.709Z,33.48
2023-11-30T00:52:54.715Z,33.49
2023-11-30T00:53:24.711Z,33.48
2023-11-30T00:53:54.753Z,33.49
2023-11-30T00:54:24.762Z,33.51
2023-11-30T00:54:54.766Z,33.41
2023-11-30T00:55:24.768Z,33.42
2023-11-30T00:55:54.774Z,33.45
2023-11-30T00:56:24.782Z,33.42
2023-11-30T00:56:54.801Z,33.44
2023-11-30T00:57:24.809Z,33.45
2023-11-30T00:57:54.851Z,33.48
2023-11-30T00:58:24.847Z,33.45
2023-11-30T00:58:54.864Z,33.40
2023-11-30T00:59:24.860Z,33.49
2023-11-30T00:59:54.894Z,33.46
2023-11-30T01:00:24.923Z,33.42
2023-11-30T01:00:55.007Z,33.45
2023-11-30T01:01:25.041Z,33.45
2023-11-30T01:01:55.097Z,33.40
2023-11-30T01:02:25.132Z,33.37
2023-11-30T01:02:55.149Z,33.46
2023-11-30T01:03:25.224Z,33.48
2023-11-30T01:03:55.294Z,33.48
2023-11-30T01:04:25.397Z,33.45
2023-11-30T01:04:55.384Z,33.46
2023-11-30T01:05:25.393Z,33.45
2023-11-30T01:05:55.423Z,33.43
2023-11-30T01:06:25.441Z,33.44
2023-11-30T01:06:55.443Z,33.48
2023-11-30T01:07:25.424Z,33.48
2023-11-30T01:07:55.503Z,33.42
2023-11-30T01:08:25.520Z,33.42
2023-11-30T01:08:55.560Z,33.45
2023-11-30T01:09:25.613Z,33.45
2023-11-30T01:09:55.635Z,33.45
2023-11-30T01:10:25.632Z,33.45
2023-11-30T01:10:55.634Z,33.42
2023-11-30T01:11:25.641Z,33.37
2023-11-30T01:11:55.675Z,33.40
2023-11-30T01:12:25.687Z,33.34
2023-11-30T01:12:55.681Z,33.34
2023-11-30T01:13:25.699Z,33.30
2023-11-30T01:13:55.698Z,33.29
2023-11-30T01:14:25.707Z,33.28
2023-11-30T01:14:55.731Z,33.35
2023-11-30T01:15:25.773Z,33.24
2023-11-30T01:15:55.782Z,33.23
2023-11-30T01:16:25.797Z,33.20
2023-11-30T01:16:55.870Z,33.24
2023-11-30T01:17:25.976Z,33.30
2023-11-30T01:17:56.050Z,33.27
2023-11-30T01:18:26.204Z,33.30
2023-11-30T01:18:56.084Z,33.33
2023-11-30T01:19:26.207Z,33.33
2023-11-30T01:19:56.213Z,33.29
2023-11-30T01:20:26.268Z,33.32
2023-11-30T01:20:56.397Z,33.33
2023-11-30T01:21:26.460Z,33.26
2023-11-30T01:21:56.464Z,33.27
2023-11-30T01:22:26.529Z,33.32
2023-11-30T01:22:56.613Z,33.30
2023-11-30T01:23:26.701Z,33.27
2023-11-30T01:23:56.825Z,33.30
2023-11-30T01:24:26.919Z,33.30
2023-11-30T01:24:56.972Z,33.33
2023-11-30T01:25:27.059Z,33.33
2023-11-30T01:25:57.137Z,33.30
2023-11-30T01:26:27.239Z,33.31
2023-11-30T01:26:57.255Z,33.38
2023-11-30T01:27:27.292Z,33.27
2023-11-30T01:27:57.277Z,33.26
2023-11-30T01:28:27.284Z,33.33
2023-11-30T01:28:57.285Z,33.23
2023-11-30T01:29:27.283Z,33.30
2023-11-30T01:30:27.391Z,33.24
2023-11-30T01:30:57.366Z,33.22
2023-11-30T01:31:57.435Z,33.18
2023-11-30T01:32:27.540Z,33.20
2023-11-30T01:33:27.637Z,33.20
2023-11-30T01:33:57.518Z,33.19
2023-11-30T01:34:57.605Z,33.18
2023-11-30T01:35:27.666Z,33.18
2023-11-30T01:35:57.668Z,33.16
2023-11-30T01:36:57.771Z,33.06
2023-11-30T01:37:27.762Z,33.18
2023-11-30T01:37:57.776Z,33.11
2023-11-30T01:38:27.778Z,33.18
2023-11-30T01:38:57.842Z,33.17
2023-11-30T01:39:27.985Z,33.18
2023-11-30T01:39:57.892Z,33.23
2023-11-30T01:40:27.905Z,33.20
2023-11-30T01:40:57.909Z,33.20
2023-11-30T01:41:27.934Z,33.23
2023-11-30T01:41:58.025Z,33.25
2023-11-30T01:42:28.042Z,33.23
2023-11-30T01:42:58.021Z,33.23
2023-11-30T01:43:28.027Z,33.27
2023-11-30T01:43:58.096Z,33.20
2023-11-30T01:44:28.078Z,33.26
2023-11-30T01:44:58.151Z,33.24
2023-11-30T01:45:28.190Z,33.24
2023-11-30T01:46:03.498Z,33.21
2023-11-30T01:46:28.387Z,33.23
2023-11-30T01:46:58.386Z,33.18
2023-11-30T01:47:28.401Z,33.22
2023-11-30T01:47:58.449Z,33.19
2023-11-30T01:48:28.517Z,33.24
2023-11-30T01:48:58.534Z,33.26
2023-11-30T01:49:28.525Z,33.16
2023-11-30T01:49:58.523Z,33.19
2023-11-30T01:50:28.528Z,33.26
2023-11-30T01:50:58.642Z,33.27
2023-11-30T01:51:28.660Z,33.18
2023-11-30T01:51:58.653Z,33.31
2023-11-30T01:52:28.676Z,33.24
2023-11-30T01:52:58.693Z,33.29
2023-11-30T01:53:28.699Z,33.27
2023-11-30T01:53:58.739Z,33.34
2023-11-30T01:54:28.805Z,33.27
2023-11-30T01:54:58.797Z,33.28
2023-11-30T01:55:28.800Z,33.35
2023-11-30T01:55:58.814Z,33.37
2023-11-30T01:56:28.822Z,33.29
2023-11-30T01:56:58.855Z,33.25
2023-11-30T01:57:28.878Z,33.28
2023-11-30T01:57:58.849Z,33.22
2023-11-30T01:58:28.854Z,33.24
2023-11-30T01:58:58.872Z,33.26
2023-11-30T01:59:28.888Z,33.21
2023-11-30T02:00:29.063Z,33.25
2023-11-30T02:00:59.134Z,33.16
2023-11-30T02:01:29.303Z,33.18
2023-11-30T02:01:59.412Z,33.15
2023-11-30T02:02:29.258Z,33.15
2023-11-30T02:02:59.355Z,33.21
2023-11-30T02:03:29.307Z,33.21
2023-11-30T02:03:59.418Z,33.13
2023-11-30T02:04:29.463Z,33.12
2023-11-30T02:04:59.491Z,33.11
2023-11-30T02:05:29.493Z,33.11
2023-11-30T02:05:59.542Z,33.12
2023-11-30T02:06:29.603Z,33.07
2023-11-30T02:06:59.610Z,33.03
2023-11-30T02:07:29.619Z,33.09
2023-11-30T02:07:59.612Z,33.13
2023-11-30T02:08:59.699Z,33.09
2023-11-30T02:09:29.730Z,33.12
2023-11-30T02:09:59.769Z,33.15
2023-11-30T02:10:29.755Z,33.12
2023-11-30T02:11:29.841Z,33.15
2023-11-30T02:11:59.853Z,33.16
2023-11-30T02:12:59.922Z,33.19
2023-11-30T02:13:29.925Z,33.22
2023-11-30T02:13:59.943Z,33.22
2023-11-30T02:14:29.929Z,33.15
2023-11-30T02:14:59.962Z,33.19
2023-11-30T02:15:30.011Z,33.12
2023-11-30T02:16:00.035Z,33.15
2023-11-30T02:16:30.140Z,33.18
2023-11-30T02:17:00.097Z,33.12
2023-11-30T02:17:30.250Z,33.16
2023-11-30T02:18:00.478Z,33.13
2023-11-30T02:18:30.268Z,33.21
2023-11-30T02:19:00.239Z,33.09
2023-11-30T02:19:30.342Z,33.07
2023-11-30T02:20:00.408Z,33.12
2023-11-30T02:20:30.483Z,33.02
2023-11-30T02:21:00.601Z,33.07
2023-11-30T02:21:30.600Z,33.04
2023-11-30T02:22:00.614Z,33.12
2023-11-30T02:22:30.667Z,33.09
2023-11-30T02:23:00.756Z,33.15
2023-11-30T02:23:30.822Z,33.13
2023-11-30T02:24:00.956Z,33.19
2023-11-30T02:24:30.945Z,33.16
2023-11-30T02:25:00.944Z,33.09
2023-11-30T02:25:31.014Z,33.06
2023-11-30T02:26:01.037Z,33.15
2023-11-30T02:26:31.107Z,33.21
2023-11-30T02:27:01.161Z,33.19
2023-11-30T02:27:31.215Z,33.17
2023-11-30T02:28:01.230Z,33.22
2023-11-30T02:28:31.245Z,33.21
2023-11-30T02:29:01.243Z,33.16
2023-11-30T02:29:31.252Z,33.24
2023-11-30T02:30:01.260Z,33.22
2023-11-30T02:30:31.314Z,33.23
2023-11-30T02:31:01.348Z,33.25
2023-11-30T02:31:31.383Z,33.25
2023-11-30T02:32:01.421Z,33.25
2023-11-30T02:32:31.420Z,33.26
2023-11-30T02:33:01.595Z,33.23
2023-11-30T02:33:31.572Z,33.27
2023-11-30T02:34:01.561Z,33.22
2023-11-30T02:34:31.542Z,33.24
2023-11-30T02:35:01.543Z,33.16
2023-11-30T02:35:31.548Z,33.08
2023-11-30T02:36:01.583Z,33.17
2023-11-30T02:36:31.603Z,33.19
2023-11-30T02:37:01.638Z,33.27
2023-11-30T02:37:31.646Z,33.20
2023-11-30T02:38:01.622Z,33.20
2023-11-30T02:39:01.733Z,33.27
2023-11-30T02:39:31.765Z,33.27
2023-11-30T02:40:01.755Z,33.20
2023-11-30T02:40:31.760Z,33.20
2023-11-30T02:41:01.769Z,33.17
2023-11-30T02:41:31.770Z,33.23
2023-11-30T02:42:01.785Z,33.20
2023-11-30T02:42:31.805Z,33.21
2023-11-30T02:43:01.822Z,33.17
2023-11-30T02:43:31.819Z,33.16
2023-11-30T02:44:01.856Z,33.23
2023-11-30T02:44:31.872Z,33.22
2023-11-30T02:45:01.929Z,33.23
2023-11-30T02:45:31.977Z,33.22
2023-11-30T02:46:02.002Z,33.22
2023-11-30T02:46:32.097Z,33.26
2023-11-30T02:47:02.106Z,33.29
2023-11-30T02:47:32.131Z,33.35
2023-11-30T02:48:02.256Z,33.33
2023-11-30T02:48:32.216Z,33.30
2023-11-30T02:49:02.212Z,33.26
2023-11-30T02:49:32.183Z,33.35
2023-11-30T02:50:32.280Z,33.27
2023-11-30T02:51:02.315Z,33.26
2023-11-30T02:51:32.345Z,33.23
2023-11-30T02:52:02.335Z,33.26
2023-11-30T02:52:32.319Z,33.22
2023-11-30T02:53:02.346Z,33.24
2023-11-30T02:53:32.318Z,33.29
2023-11-30T02:54:32.422Z,33.15
2023-11-30T02:55:02.479Z,33.22
2023-11-30T02:55:32.466Z,33.22
2023-11-30T02:56:02.480Z,33.20
2023-11-30T02:56:32.474Z,33.23
2023-11-30T02:57:02.500Z,33.16
2023-11-30T02:57:32.565Z,33.16
2023-11-30T02:58:02.566Z,33.17
2023-11-30T02:58:32.567Z,33.19
2023-11-30T02:59:02.578Z,33.19
2023-11-30T02:59:32.689Z,33.10
2023-11-30T03:00:02.750Z,33.08
2023-11-30T03:00:32.831Z,33.11
2023-11-30T03:01:02.854Z,33.13
2023-11-30T03:01:32.965Z,33.06
2023-11-30T03:02:02.996Z,33.13
2023-11-30T03:02:33.016Z,33.13
2023-11-30T03:03:03.175Z,33.14
2023-11-30T03:03:33.313Z,33.06
2023-11-30T03:04:03.173Z,33.08
2023-11-30T03:04:33.164Z,33.07
2023-11-30T03:05:03.174Z,33.08
2023-11-30T03:05:33.200Z,33.10
2023-11-30T03:06:03.203Z,33.13
2023-11-30T03:06:33.252Z,33.11
2023-11-30T03:07:03.260Z,33.10
2023-11-30T03:07:33.258Z,33.08
2023-11-30T03:08:03.260Z,33.10
2023-11-30T03:08:33.294Z,33.06
2023-11-30T03:09:03.287Z,33.06
2023-11-30T03:10:03.350Z,33.13
2023-11-30T03:10:33.356Z,33.05
2023-11-30T03:11:03.360Z,33.07
2023-11-30T03:11:33.523Z,33.07
2023-11-30T03:12:03.429Z,33.05
2023-11-30T03:12:33.452Z,33.08
2023-11-30T03:13:03.558Z,33.07
2023-11-30T03:13:33.624Z,33.06
2023-11-30T03:14:03.660Z,33.04
2023-11-30T03:14:33.654Z,33.01
2023-11-30T03:15:03.740Z,33.01
2023-11-30T03:15:33.684Z,33.02
2023-11-30T03:16:03.701Z,33.02
2023-11-30T03:16:33.737Z,33.10
2023-11-30T03:17:03.715Z,33.13
2023-11-30T03:17:33.792Z,33.08
2023-11-30T03:18:04.107Z,33.06
2023-11-30T03:18:34.011Z,33.06
2023-11-30T03:19:33.998Z,33.06
2023-11-30T03:20:04.329Z,33.04
2023-11-30T03:20:34.166Z,33.04
2023-11-30T03:21:34.294Z,33.01
2023-11-30T03:22:04.370Z,33.00
2023-11-30T03:22:34.446Z,33.00
2023-11-30T03:23:04.519Z,33.01
2023-11-30T03:23:34.589Z,33.04
2023-11-30T03:24:04.714Z,33.04
2023-11-30T03:24:34.820Z,33.05
2023-11-30T03:25:04.778Z,33.04
2023-11-30T03:25:34.854Z,33.01
2023-11-30T03:26:04.928Z,33.04
2023-11-30T03:26:35.027Z,33.02
2023-11-30T03:27:05.037Z,32.95
2023-11-30T03:27:35.051Z,33.01
2023-11-30T03:28:05.045Z,32.98
2023-11-30T03:28:35.057Z,33.06
2023-11-30T03:29:05.088Z,33.07
2023-11-30T03:29:35.116Z,33.11
2023-11-30T03:30:05.135Z,33.06
2023-11-30T03:30:35.168Z,33.10
2023-11-30T03:31:05.147Z,33.15
2023-11-30T03:31:37.640Z,33.11
2023-11-30T03:32:05.261Z,33.14
2023-11-30T03:32:35.317Z,33.15
2023-11-30T03:33:05.384Z,33.11
2023-11-30T03:33:35.361Z,33.15
2023-11-30T03:34:05.390Z,33.20
2023-11-30T03:34:35.394Z,33.20
2023-11-30T03:35:05.510Z,33.14
2023-11-30T03:35:35.507Z,33.17
2023-11-30T03:36:05.665Z,33.20
2023-11-30T03:36:35.675Z,33.14
2023-11-30T03:37:05.649Z,33.17
2023-11-30T03:37:35.639Z,33.11
2023-11-30T03:38:05.640Z,33.11
2023-11-30T03:38:35.665Z,33.06
2023-11-30T03:39:05.745Z,33.08
2023-11-30T03:39:35.811Z,33.08
2023-11-30T03:40:05.794Z,33.05
2023-11-30T03:40:35.793Z,33.03
2023-11-30T03:41:05.800Z,33.11
2023-11-30T03:41:35.797Z,33.00
2023-11-30T03:42:05.822Z,33.01
2023-11-30T03:42:35.858Z,33.10
2023-11-30T03:43:05.868Z,33.02
2023-11-30T03:43:35.883Z,33.04
2023-11-30T03:44:05.920Z,33.04
2023-11-30T03:44:35.948Z,33.04
2023-11-30T03:45:05.959Z,33.05
2023-11-30T03:45:36.385Z,33.07
2023-11-30T03:46:06.034Z,33.10
2023-11-30T03:46:36.073Z,33.06
2023-11-30T03:47:06.081Z,33.05
2023-11-30T03:47:36.141Z,33.02
2023-11-30T03:48:06.242Z,33.02
2023-11-30T03:48:36.168Z,33.01
2023-11-30T03:49:06.163Z,32.98
2023-11-30T03:49:36.157Z,32.99
2023-11-30T03:50:36.236Z,33.06
2023-11-30T03:51:06.253Z,33.05
2023-11-30T03:51:36.293Z,33.11
2023-11-30T03:52:06.340Z,33.05
2023-11-30T03:52:36.390Z,33.00
2023-11-30T03:53:06.374Z,33.07
2023-11-30T03:53:36.375Z,33.06
2023-11-30T03:54:36.497Z,33.02
2023-11-30T03:55:06.567Z,33.05
2023-11-30T03:55:36.557Z,33.02
2023-11-30T03:56:36.637Z,33.05
2023-11-30T03:57:06.663Z,33.02
2023-11-30T03:57:36.703Z,33.02
2023-11-30T03:58:06.711Z,33.02
2023-11-30T03:58:36.832Z,33.07
2023-11-30T03:59:06.824Z,32.95
2023-11-30T03:59:36.835Z,33.02
2023-11-30T04:00:06.882Z,33.00
2023-11-30T04:00:36.939Z,32.98
2023-11-30T04:01:06.886Z,32.96
2023-11-30T04:01:36.968Z,32.93
2023-11-30T04:02:07.063Z,32.89
2023-11-30T04:02:37.070Z,32.87
2023-11-30T04:03:07.160Z,32.85
2023-11-30T04:03:37.193Z,32.92
2023-11-30T04:04:07.209Z,32.85
2023-11-30T04:04:37.305Z,32.82
2023-11-30T04:05:07.222Z,32.86
2023-11-30T04:05:37.312Z,32.86
2023-11-30T04:06:07.399Z,32.84
2023-11-30T04:06:37.401Z,32.87
2023-11-30T04:07:07.397Z,32.90
2023-11-30T04:07:37.395Z,32.87
2023-11-30T04:08:37.469Z,32.95
2023-11-30T04:09:07.492Z,33.00
2023-11-30T04:09:37.482Z,33.03
2023-11-30T04:10:07.583Z,33.05
2023-11-30T04:10:37.614Z,33.03
2023-11-30T04:11:07.615Z,33.03
2023-11-30T04:12:07.711Z,33.08
2023-11-30T04:12:37.689Z,33.03
2023-11-30T04:13:07.696Z,33.07
2023-11-30T04:14:07.783Z,33.15
2023-11-30T04:14:37.807Z,33.13
2023-11-30T04:15:07.842Z,33.07
2023-11-30T04:15:37.855Z,33.19
2023-11-30T04:16:07.878Z,33.12
2023-11-30T04:16:37.986Z,33.10
2023-11-30T04:17:08.128Z,33.12
2023-11-30T04:17:38.135Z,33.07
2023-11-30T04:18:08.296Z,33.06
2023-11-30T04:18:38.305Z,33.11
2023-11-30T04:19:08.366Z,33.10
2023-11-30T04:19:38.441Z,33.15
2023-11-30T04:20:08.553Z,33.11
2023-11-30T04:20:38.630Z,33.14
2023-11-30T04:21:08.714Z,33.16
2023-11-30T04:21:38.790Z,33.19
2023-11-30T04:22:08.871Z,33.23
2023-11-30T04:22:38.960Z,33.22
2023-11-30T04:23:09.032Z,33.23
2023-11-30T04:23:39.136Z,33.24
2023-11-30T04:24:09.238Z,33.25
2023-11-30T04:24:39.232Z,33.33
2023-11-30T04:25:09.306Z,33.38
2023-11-30T04:25:39.409Z,33.36
2023-11-30T04:26:09.482Z,33.44
2023-11-30T04:26:39.588Z,33.43
2023-11-30T04:27:09.622Z,33.50
2023-11-30T04:27:39.602Z,33.56
2023-11-30T04:28:09.603Z,33.56
2023-11-30T04:28:39.612Z,33.54
2023-11-30T04:29:09.614Z,33.58
2023-11-30T04:29:39.735Z,33.62
2023-11-30T04:30:09.750Z,33.68
2023-11-30T04:30:39.891Z,33.64
2023-11-30T04:31:09.909Z,33.63
2023-11-30T04:31:39.954Z,33.78
2023-11-30T04:32:09.940Z,33.76
2023-11-30T04:32:40.005Z,33.75
2023-11-30T04:33:10.088Z,33.72
2023-11-30T04:33:40.155Z,33.65
2023-11-30T04:34:10.172Z,33.73
2023-11-30T04:34:40.185Z,33.71
2023-11-30T04:35:10.176Z,33.71
2023-11-30T04:35:40.183Z,33.74
2023-11-30T04:36:10.199Z,33.75
2023-11-30T04:36:40.204Z,33.76
2023-11-30T04:37:10.186Z,33.85
2023-11-30T04:37:40.198Z,33.89
2023-11-30T04:38:10.205Z,33.97
2023-11-30T04:38:40.323Z,33.98
2023-11-30T04:39:10.408Z,34.03
2023-11-30T04:39:40.429Z,34.11
2023-11-30T04:40:10.424Z,34.13
2023-11-30T04:41:10.525Z,34.26
2023-11-30T04:41:40.509Z,34.22
2023-11-30T04:42:40.592Z,34.34
2023-11-30T04:43:10.697Z,34.33
2023-11-30T04:43:40.901Z,34.42
2023-11-30T04:44:10.793Z,34.52
2023-11-30T04:45:10.949Z,34.48
2023-11-30T04:45:41.006Z,34.54
2023-11-30T04:46:11.013Z,34.61
2023-11-30T04:46:41.082Z,34.66
2023-11-30T04:47:11.084Z,34.68
2023-11-30T04:47:41.236Z,34.68
2023-11-30T04:48:11.389Z,34.63
2023-11-30T04:48:42.492Z,34.62
2023-11-30T04:49:11.338Z,34.65
2023-11-30T04:49:41.342Z,34.70
2023-11-30T04:50:11.344Z,34.73
2023-11-30T04:50:41.345Z,34.78
2023-11-30T04:51:11.462Z,34.71
2023-11-30T04:51:41.358Z,34.75
2023-11-30T04:52:11.357Z,34.79
2023-11-30T04:52:41.371Z,34.75
2023-11-30T04:53:11.378Z,34.82
2023-11-30T04:53:41.392Z,34.83
2023-11-30T04:54:11.404Z,34.87
2023-11-30T04:54:41.553Z,34.79
2023-11-30T04:55:11.539Z,34.86
2023-11-30T04:55:41.539Z,34.90
2023-11-30T04:56:11.556Z,34.86
2023-11-30T04:56:41.676Z,34.92
2023-11-30T04:57:11.677Z,34.92
2023-11-30T04:58:11.776Z,34.90
2023-11-30T04:58:41.765Z,34.90
2023-11-30T04:59:11.765Z,34.97
2023-11-30T04:59:41.788Z,34.97
2023-11-30T05:00:11.782Z,34.96
2023-11-30T05:00:41.888Z,34.97
2023-11-30T05:01:11.909Z,34.97
2023-11-30T05:01:42.043Z,35.00
2023-11-30T05:02:12.073Z,35.00
2023-11-30T05:02:42.078Z,35.03
2023-11-30T05:03:42.267Z,35.04
2023-11-30T05:04:12.127Z,35.04
2023-11-30T05:04:42.302Z,35.04
2023-11-30T05:05:12.150Z,35.04
2023-11-30T05:05:42.137Z,35.01
2023-11-30T05:06:12.184Z,35.04
2023-11-30T05:06:42.323Z,35.03
2023-11-30T05:07:12.216Z,35.05
2023-11-30T05:08:14.114Z,35.21
2023-11-30T05:08:42.385Z,35.17
2023-11-30T05:09:12.407Z,34.97
2023-11-30T05:09:42.396Z,34.78
2023-11-30T05:10:12.397Z,34.69
2023-11-30T05:10:42.415Z,34.57
2023-11-30T05:11:42.485Z,34.48
2023-11-30T05:12:12.528Z,34.42
2023-11-30T05:12:42.517Z,34.29
2023-11-30T05:13:12.511Z,34.51
2023-11-30T05:13:42.528Z,34.54
2023-11-30T05:14:12.519Z,34.55
2023-11-30T05:14:42.530Z,34.50
2023-11-30T05:15:12.535Z,34.48
2023-11-30T05:15:43.783Z,34.45
2023-11-30T05:16:12.594Z,34.45
2023-11-30T05:16:42.633Z,34.54
2023-11-30T05:17:12.656Z,34.54
2023-11-30T05:17:43.424Z,34.60
2023-11-30T05:18:12.878Z,34.65
2023-11-30T05:19:12.904Z,34.83
2023-11-30T05:19:42.998Z,34.84
2023-11-30T05:20:13.075Z,34.85
2023-11-30T05:20:43.177Z,35.04
2023-11-30T05:21:13.281Z,35.11
2023-11-30T05:21:43.353Z,35.17
2023-11-30T05:22:13.418Z,35.14
2023-11-30T05:22:43.501Z,35.23
2023-11-30T05:23:13.581Z,35.27
2023-11-30T05:23:43.663Z,35.33
2023-11-30T05:24:13.760Z,35.29
2023-11-30T05:24:43.831Z,35.27
2023-11-30T05:25:13.907Z,35.36
2023-11-30T05:25:44.341Z,35.25
2023-11-30T05:26:14.064Z,35.38
2023-11-30T05:26:44.170Z,35.36
2023-11-30T05:27:14.320Z,35.30
2023-11-30T05:27:44.332Z,35.33
2023-11-30T05:28:14.324Z,35.36
2023-11-30T05:29:14.373Z,35.35
2023-11-30T05:29:44.378Z,35.33
2023-11-30T05:30:14.506Z,35.38
2023-11-30T05:30:44.477Z,35.40
2023-11-30T05:31:14.496Z,35.46
2023-11-30T05:31:44.484Z,35.43
2023-11-30T05:32:14.486Z,35.42
2023-11-30T05:33:14.623Z,35.45
2023-11-30T05:33:44.638Z,35.46
2023-11-30T05:34:14.629Z,35.44
2023-11-30T05:34:44.842Z,35.42
2023-11-30T05:35:14.742Z,35.41
2023-11-30T05:36:14.866Z,35.41
2023-11-30T05:36:44.852Z,35.45
2023-11-30T05:37:14.863Z,35.53
2023-11-30T05:37:44.870Z,35.57
2023-11-30T05:38:14.869Z,35.52
2023-11-30T05:38:44.872Z,35.51
2023-11-30T05:39:15.036Z,35.53
2023-11-30T05:39:45.059Z,35.46
2023-11-30T05:40:15.050Z,35.44
2023-11-30T05:40:45.162Z,35.50
2023-11-30T05:41:15.158Z,35.48
2023-11-30T05:41:45.173Z,35.65
2023-11-30T05:42:15.200Z,35.58
2023-11-30T05:42:45.192Z,35.75
2023-11-30T05:43:15.206Z,35.63
2023-11-30T05:43:45.250Z,35.70
2023-11-30T05:44:15.240Z,35.50
2023-11-30T05:44:45.258Z,35.57
2023-11-30T05:45:15.335Z,35.51
2023-11-30T05:45:45.343Z,35.57
2023-11-30T05:46:15.342Z,35.47
2023-11-30T05:46:47.934Z,35.46
2023-11-30T05:47:15.455Z,35.47
2023-11-30T05:48:15.594Z,35.51
2023-11-30T05:48:45.586Z,35.57
2023-11-30T05:49:15.678Z,35.49
2023-11-30T05:49:45.599Z,35.45
2023-11-30T05:50:45.676Z,35.37
2023-11-30T05:51:15.705Z,35.42
2023-11-30T05:51:45.721Z,35.33
2023-11-30T05:52:15.721Z,35.30
2023-11-30T05:52:45.724Z,35.28
2023-11-30T05:53:15.722Z,35.22
2023-11-30T05:53:45.784Z,35.19
2023-11-30T05:54:15.800Z,35.13
2023-11-30T05:54:45.877Z,35.02
2023-11-30T05:55:15.871Z,35.11
2023-11-30T05:55:45.875Z,35.05
2023-11-30T05:56:15.979Z,35.06
2023-11-30T05:56:45.989Z,34.98
2023-11-30T05:57:16.032Z,34.83
2023-11-30T05:57:46.085Z,34.81
2023-11-30T05:58:16.089Z,34.95
2023-11-30T05:58:46.132Z,34.85
2023-11-30T05:59:16.120Z,34.89
2023-11-30T06:00:16.331Z,34.92
2023-11-30T06:00:46.234Z,34.99
2023-11-30T06:01:16.247Z,34.98
2023-11-30T06:01:46.312Z,34.97
2023-11-30T06:02:16.287Z,35.04
2023-11-30T06:02:46.316Z,35.16
2023-11-30T06:03:16.468Z,35.13
2023-11-30T06:03:46.499Z,35.18
2023-11-30T06:04:16.480Z,35.13
2023-11-30T06:04:46.563Z,35.00
2023-11-30T06:05:16.724Z,35.04
2023-11-30T06:05:46.565Z,35.04
2023-11-30T06:06:16.572Z,35.09
2023-11-30T06:06:46.577Z,35.05
2023-11-30T06:07:16.587Z,34.98
2023-11-30T06:07:46.590Z,35.07
2023-11-30T06:08:16.591Z,35.02
2023-11-30T06:08:46.599Z,34.98
2023-11-30T06:09:16.621Z,35.00
2023-11-30T06:09:46.623Z,34.90
2023-11-30T06:10:16.629Z,34.85
2023-11-30T06:10:46.740Z,34.89
2023-11-30T06:11:16.756Z,34.83
2023-11-30T06:11:46.757Z,34.90
2023-11-30T06:12:16.946Z,34.84
2023-11-30T06:12:46.850Z,34.79
2023-11-30T06:13:46.927Z,34.79
2023-11-30T06:14:16.949Z,34.84
2023-11-30T06:15:17.020Z,34.76
2023-11-30T06:15:47.134Z,34.70
2023-11-30T06:16:17.044Z,34.71
2023-11-30T06:16:47.035Z,34.75
2023-11-30T06:17:17.129Z,34.85
2023-11-30T06:17:47.245Z,34.85
2023-11-30T06:18:17.235Z,35.00
2023-11-30T06:18:47.287Z,34.89
2023-11-30T06:19:17.365Z,34.91
2023-11-30T06:19:47.464Z,34.93
2023-11-30T06:20:17.543Z,34.98
2023-11-30T06:20:47.634Z,35.03
2023-11-30T06:21:17.732Z,35.02
2023-11-30T06:21:47.801Z,35.02
2023-11-30T06:22:17.907Z,34.95
2023-11-30T06:22:47.983Z,34.96
2023-11-30T06:23:18.062Z,35.00
2023-11-30T06:23:48.144Z,35.06
2023-11-30T06:24:18.317Z,35.02
2023-11-30T06:24:48.288Z,34.97
2023-11-30T06:25:18.358Z,34.96
2023-11-30T06:25:48.452Z,35.04
2023-11-30T06:26:18.557Z,34.92
2023-11-30T06:26:48.638Z,34.94
2023-11-30T06:27:18.684Z,35.00
2023-11-30T06:27:48.669Z,35.00
2023-11-30T06:28:18.668Z,35.00
2023-11-30T06:28:48.679Z,34.97
2023-11-30T06:29:18.710Z,34.96
2023-11-30T06:29:48.701Z,34.92
2023-11-30T06:30:48.823Z,34.79
2023-11-30T06:31:18.899Z,34.88
2023-11-30T06:31:48.887Z,34.95
2023-11-30T06:32:18.889Z,34.85
2023-11-30T06:32:48.961Z,34.91
2023-11-30T06:33:18.997Z,34.91
2023-11-30T06:33:49.028Z,34.86
2023-11-30T06:34:19.011Z,34.84
2023-11-30T06:34:49.023Z,34.90
2023-11-30T06:35:19.010Z,34.95
2023-11-30T06:35:49.100Z,34.91
2023-11-30T06:36:19.137Z,34.91
2023-11-30T06:36:49.126Z,34.84
2023-11-30T06:37:19.137Z,34.91
2023-11-30T06:37:49.128Z,34.88
2023-11-30T06:38:19.145Z,34.88
2023-11-30T06:38:49.158Z,34.80
2023-11-30T06:39:19.187Z,34.89
2023-11-30T06:39:49.188Z,34.89
2023-11-30T06:40:19.204Z,34.89
2023-11-30T06:40:49.209Z,34.79
2023-11-30T06:41:19.221Z,34.82
2023-11-30T06:41:50.586Z,34.84
2023-11-30T06:42:19.313Z,34.77
2023-11-30T06:42:49.294Z,34.81
2023-11-30T06:43:19.312Z,34.84
2023-11-30T06:43:49.293Z,34.84
2023-11-30T06:44:19.438Z,34.82
2023-11-30T06:44:49.486Z,34.83
2023-11-30T06:45:19.536Z,34.88
2023-11-30T06:45:49.588Z,34.83
2023-11-30T06:46:19.591Z,34.86
2023-11-30T06:46:49.715Z,34.85
2023-11-30T06:47:19.822Z,34.80
2023-11-30T06:47:49.838Z,34.87
2023-11-30T06:48:19.919Z,34.84
2023-11-30T06:48:50.051Z,34.79
2023-11-30T06:49:20.080Z,34.67